sensor_id;sensor_type;location;lat;lon;timestamp;P1;durP1;ratioP1;P2;durP2;ratioP2
79204;SDS011;68632;47.512;19.104;2023-07-08T00:00:42;7.95;;;4.63;;
79204;SDS011;68632;47.512;19.104;2023-07-08T00:01:45;11.73;;;4.88;;
79204;SDS011;68632;47.512;19.104;2023-07-08T00:02:47;8.57;;;4.43;;
79204;SDS011;68632;47.512;19.104;2023-07-08T00:03:50;5.55;;;4.15;;
79204;SDS011;68632;47.512;19.104;2023-07-08T00:04:52;8.60;;;5.13;;
79204;SDS011;68632;47.512;19.104;2023-07-08T00:05:55;6.35;;;4.45;;
79204;SDS011;68632;47.512;19.104;2023-07-08T00:06:57;6.90;;;4.55;;
79204;SDS011;68632;47.512;19.104;2023-07-08T00:07:59;7.93;;;4.63;;
79204;SDS011;68632;47.512;19.104;2023-07-08T00:09:02;9.90;;;4.60;;
79204;SDS011;68632;47.512;19.104;2023-07-08T00:11:19;8.90;;;4.80;;
79204;SDS011;68632;47.512;19.104;2023-07-08T00:12:21;8.07;;;4.30;;
79204;SDS011;68632;47.512;19.104;2023-07-08T00:13:24;8.27;;;4.80;;
79204;SDS011;68632;47.512;19.104;2023-07-08T00:14:26;6.85;;;4.35;;
79204;SDS011;68632;47.512;19.104;2023-07-08T00:15:29;11.13;;;5.30;;
79204;SDS011;68632;47.512;19.104;2023-07-08T00:16:36;9.63;;;4.40;;
79204;SDS011;68632;47.512;19.104;2023-07-08T00:17:38;7.90;;;4.82;;
79204;SDS011;68632;47.512;19.104;2023-07-08T00:18:40;7.13;;;4.57;;
79204;SDS011;68632;47.512;19.104;2023-07-08T00:19:43;7.10;;;4.82;;
79204;SDS011;68632;47.512;19.104;2023-07-08T00:20:46;9.02;;;4.50;;
79204;SDS011;68632;47.512;19.104;2023-07-08T00:21:50;7.40;;;4.70;;
79204;SDS011;68632;47.512;19.104;2023-07-08T00:22:53;7.10;;;4.50;;
79204;SDS011;68632;47.512;19.104;2023-07-08T00:23:55;10.15;;;4.68;;
79204;SDS011;68632;47.512;19.104;2023-07-08T00:24:58;8.05;;;4.90;;
79204;SDS011;68632;47.512;19.104;2023-07-08T00:26:00;9.27;;;4.28;;
79204;SDS011;68632;47.512;19.104;2023-07-08T00:27:02;7.47;;;4.18;;
79204;SDS011;68632;47.512;19.104;2023-07-08T00:28:26;8.73;;;5.22;;
79204;SDS011;68632;47.512;19.104;2023-07-08T00:29:27;9.18;;;4.65;;
79204;SDS011;68632;47.512;19.104;2023-07-08T00:30:29;9.00;;;4.80;;
79204;SDS011;68632;47.512;19.104;2023-07-08T00:31:32;8.05;;;4.63;;
79204;SDS011;68632;47.512;19.104;2023-07-08T00:32:35;8.48;;;4.90;;
79204;SDS011;68632;47.512;19.104;2023-07-08T00:33:43;6.65;;;4.53;;
79204;SDS011;68632;47.512;19.104;2023-07-08T00:34:45;8.95;;;4.85;;
79204;SDS011;68632;47.512;19.104;2023-07-08T00:35:48;9.70;;;4.63;;
79204;SDS011;68632;47.512;19.104;2023-07-08T00:36:50;6.45;;;4.55;;
79204;SDS011;68632;47.512;19.104;2023-07-08T00:37:52;8.65;;;4.85;;
79204;SDS011;68632;47.512;19.104;2023-07-08T00:38:55;6.93;;;4.50;;
79204;SDS011;68632;47.512;19.104;2023-07-08T00:39:58;8.82;;;4.70;;
79204;SDS011;68632;47.512;19.104;2023-07-08T00:42:18;6.43;;;4.40;;
79204;SDS011;68632;47.512;19.104;2023-07-08T00:43:22;8.98;;;5.55;;
79204;SDS011;68632;47.512;19.104;2023-07-08T00:44:26;7.88;;;4.88;;
79204;SDS011;68632;47.512;19.104;2023-07-08T00:46:42;6.65;;;4.95;;
79204;SDS011;68632;47.512;19.104;2023-07-08T00:47:51;7.32;;;4.78;;
79204;SDS011;68632;47.512;19.104;2023-07-08T00:50:08;7.47;;;5.45;;
79204;SDS011;68632;47.512;19.104;2023-07-08T00:51:13;8.00;;;5.25;;
79204;SDS011;68632;47.512;19.104;2023-07-08T00:53:29;7.82;;;4.75;;
79204;SDS011;68632;47.512;19.104;2023-07-08T00:54:33;7.85;;;4.80;;
79204;SDS011;68632;47.512;19.104;2023-07-08T00:55:35;8.88;;;5.00;;
79204;SDS011;68632;47.512;19.104;2023-07-08T00:57:46;11.60;;;5.10;;
79204;SDS011;68632;47.512;19.104;2023-07-08T00:58:50;10.00;;;5.40;;
79204;SDS011;68632;47.512;19.104;2023-07-08T01:00:05;9.68;;;4.82;;
79204;SDS011;68632;47.512;19.104;2023-07-08T01:01:14;8.45;;;5.20;;
79204;SDS011;68632;47.512;19.104;2023-07-08T01:02:17;7.53;;;4.75;;
79204;SDS011;68632;47.512;19.104;2023-07-08T01:03:21;9.70;;;5.20;;
79204;SDS011;68632;47.512;19.104;2023-07-08T01:04:28;7.72;;;5.00;;
79204;SDS011;68632;47.512;19.104;2023-07-08T01:05:34;9.43;;;4.68;;
79204;SDS011;68632;47.512;19.104;2023-07-08T01:06:41;6.97;;;4.88;;
79204;SDS011;68632;47.512;19.104;2023-07-08T01:07:49;14.20;;;5.32;;
79204;SDS011;68632;47.512;19.104;2023-07-08T01:09:03;9.85;;;4.80;;
79204;SDS011;68632;47.512;19.104;2023-07-08T01:10:08;6.53;;;4.90;;
79204;SDS011;68632;47.512;19.104;2023-07-08T01:11:14;8.55;;;5.10;;
79204;SDS011;68632;47.512;19.104;2023-07-08T01:12:18;9.50;;;4.95;;
79204;SDS011;68632;47.512;19.104;2023-07-08T01:13:22;9.32;;;5.97;;
79204;SDS011;68632;47.512;19.104;2023-07-08T01:14:24;7.22;;;4.95;;
79204;SDS011;68632;47.512;19.104;2023-07-08T01:15:33;9.40;;;5.45;;
79204;SDS011;68632;47.512;19.104;2023-07-08T01:16:39;10.43;;;5.97;;
79204;SDS011;68632;47.512;19.104;2023-07-08T01:17:42;6.68;;;4.90;;
79204;SDS011;68632;47.512;19.104;2023-07-08T01:18:45;7.95;;;5.50;;
79204;SDS011;68632;47.512;19.104;2023-07-08T01:19:54;7.82;;;5.28;;
79204;SDS011;68632;47.512;19.104;2023-07-08T01:21:00;7.00;;;4.72;;
79204;SDS011;68632;47.512;19.104;2023-07-08T01:22:08;11.23;;;5.32;;
79204;SDS011;68632;47.512;19.104;2023-07-08T01:23:10;11.52;;;5.43;;
79204;SDS011;68632;47.512;19.104;2023-07-08T01:24:13;10.10;;;5.60;;
79204;SDS011;68632;47.512;19.104;2023-07-08T01:25:15;10.43;;;6.05;;
79204;SDS011;68632;47.512;19.104;2023-07-08T01:26:17;7.05;;;5.05;;
79204;SDS011;68632;47.512;19.104;2023-07-08T01:27:20;10.60;;;5.25;;
79204;SDS011;68632;47.512;19.104;2023-07-08T01:28:22;12.32;;;6.03;;
79204;SDS011;68632;47.512;19.104;2023-07-08T01:29:24;8.40;;;5.53;;
79204;SDS011;68632;47.512;19.104;2023-07-08T01:30:26;7.55;;;5.53;;
79204;SDS011;68632;47.512;19.104;2023-07-08T01:31:29;7.50;;;4.93;;
79204;SDS011;68632;47.512;19.104;2023-07-08T01:32:32;15.38;;;5.80;;
79204;SDS011;68632;47.512;19.104;2023-07-08T01:33:36;7.60;;;5.30;;
79204;SDS011;68632;47.512;19.104;2023-07-08T01:34:38;9.25;;;5.95;;
79204;SDS011;68632;47.512;19.104;2023-07-08T01:35:40;10.32;;;5.82;;
79204;SDS011;68632;47.512;19.104;2023-07-08T01:36:45;7.47;;;5.03;;
79204;SDS011;68632;47.512;19.104;2023-07-08T01:37:59;7.00;;;5.13;;
79204;SDS011;68632;47.512;19.104;2023-07-08T01:39:02;7.80;;;5.55;;
79204;SDS011;68632;47.512;19.104;2023-07-08T01:40:23;11.70;;;5.40;;
79204;SDS011;68632;47.512;19.104;2023-07-08T01:41:26;8.20;;;5.75;;
79204;SDS011;68632;47.512;19.104;2023-07-08T01:42:28;8.45;;;5.20;;
79204;SDS011;68632;47.512;19.104;2023-07-08T01:43:30;6.45;;;4.75;;
79204;SDS011;68632;47.512;19.104;2023-07-08T01:44:33;8.52;;;5.07;;
79204;SDS011;68632;47.512;19.104;2023-07-08T01:45:38;7.43;;;5.38;;
79204;SDS011;68632;47.512;19.104;2023-07-08T01:46:42;7.60;;;5.40;;
79204;SDS011;68632;47.512;19.104;2023-07-08T01:47:52;8.30;;;5.40;;
79204;SDS011;68632;47.512;19.104;2023-07-08T01:48:56;8.32;;;4.93;;
79204;SDS011;68632;47.512;19.104;2023-07-08T01:49:59;10.32;;;5.22;;
79204;SDS011;68632;47.512;19.104;2023-07-08T01:51:05;8.02;;;5.28;;
79204;SDS011;68632;47.512;19.104;2023-07-08T01:52:08;10.68;;;5.50;;
79204;SDS011;68632;47.512;19.104;2023-07-08T01:53:12;7.82;;;5.82;;
79204;SDS011;68632;47.512;19.104;2023-07-08T01:54:18;8.13;;;5.38;;
79204;SDS011;68632;47.512;19.104;2023-07-08T01:55:21;8.52;;;5.00;;
79204;SDS011;68632;47.512;19.104;2023-07-08T01:56:26;8.02;;;5.53;;
79204;SDS011;68632;47.512;19.104;2023-07-08T01:57:28;8.05;;;5.30;;
79204;SDS011;68632;47.512;19.104;2023-07-08T01:58:30;8.18;;;5.85;;
79204;SDS011;68632;47.512;19.104;2023-07-08T01:59:33;7.18;;;5.10;;
79204;SDS011;68632;47.512;19.104;2023-07-08T02:00:35;9.15;;;5.55;;
79204;SDS011;68632;47.512;19.104;2023-07-08T02:01:37;15.27;;;5.15;;
79204;SDS011;68632;47.512;19.104;2023-07-08T02:02:39;12.05;;;5.72;;
79204;SDS011;68632;47.512;19.104;2023-07-08T02:03:42;10.95;;;6.85;;
79204;SDS011;68632;47.512;19.104;2023-07-08T02:04:46;9.15;;;5.40;;
79204;SDS011;68632;47.512;19.104;2023-07-08T02:05:48;7.63;;;5.60;;
79204;SDS011;68632;47.512;19.104;2023-07-08T02:06:51;10.88;;;6.15;;
79204;SDS011;68632;47.512;19.104;2023-07-08T02:07:54;8.18;;;5.28;;
79204;SDS011;68632;47.512;19.104;2023-07-08T02:08:57;9.98;;;5.47;;
79204;SDS011;68632;47.512;19.104;2023-07-08T02:10:01;8.13;;;5.28;;
79204;SDS011;68632;47.512;19.104;2023-07-08T02:11:03;10.35;;;5.40;;
79204;SDS011;68632;47.512;19.104;2023-07-08T02:12:05;8.35;;;5.30;;
79204;SDS011;68632;47.512;19.104;2023-07-08T02:13:07;8.57;;;5.70;;
79204;SDS011;68632;47.512;19.104;2023-07-08T02:14:10;8.48;;;5.90;;
79204;SDS011;68632;47.512;19.104;2023-07-08T02:15:13;7.75;;;5.28;;
79204;SDS011;68632;47.512;19.104;2023-07-08T02:16:15;8.93;;;5.10;;
79204;SDS011;68632;47.512;19.104;2023-07-08T02:17:17;7.93;;;5.55;;
79204;SDS011;68632;47.512;19.104;2023-07-08T02:18:19;8.38;;;5.13;;
79204;SDS011;68632;47.512;19.104;2023-07-08T02:19:22;8.05;;;5.55;;
79204;SDS011;68632;47.512;19.104;2023-07-08T02:20:24;7.75;;;5.82;;
79204;SDS011;68632;47.512;19.104;2023-07-08T02:21:26;10.38;;;5.68;;
79204;SDS011;68632;47.512;19.104;2023-07-08T02:22:32;8.13;;;5.07;;
79204;SDS011;68632;47.512;19.104;2023-07-08T02:23:34;8.85;;;5.20;;
79204;SDS011;68632;47.512;19.104;2023-07-08T02:24:36;10.05;;;5.20;;
79204;SDS011;68632;47.512;19.104;2023-07-08T02:25:39;8.30;;;4.93;;
79204;SDS011;68632;47.512;19.104;2023-07-08T02:26:41;14.45;;;5.85;;
79204;SDS011;68632;47.512;19.104;2023-07-08T02:27:43;7.10;;;5.13;;
79204;SDS011;68632;47.512;19.104;2023-07-08T02:28:45;9.82;;;5.47;;
79204;SDS011;68632;47.512;19.104;2023-07-08T02:29:47;8.93;;;5.43;;
79204;SDS011;68632;47.512;19.104;2023-07-08T02:30:50;9.63;;;5.40;;
79204;SDS011;68632;47.512;19.104;2023-07-08T02:31:52;7.80;;;5.50;;
79204;SDS011;68632;47.512;19.104;2023-07-08T02:32:54;9.75;;;5.82;;
79204;SDS011;68632;47.512;19.104;2023-07-08T02:33:59;10.40;;;7.05;;
79204;SDS011;68632;47.512;19.104;2023-07-08T02:35:04;9.65;;;5.53;;
79204;SDS011;68632;47.512;19.104;2023-07-08T02:36:07;10.45;;;5.43;;
79204;SDS011;68632;47.512;19.104;2023-07-08T02:37:09;8.85;;;6.32;;
79204;SDS011;68632;47.512;19.104;2023-07-08T02:38:12;12.07;;;5.45;;
79204;SDS011;68632;47.512;19.104;2023-07-08T02:39:14;7.75;;;5.78;;
79204;SDS011;68632;47.512;19.104;2023-07-08T02:40:16;9.73;;;5.40;;
79204;SDS011;68632;47.512;19.104;2023-07-08T02:41:18;13.20;;;5.57;;
79204;SDS011;68632;47.512;19.104;2023-07-08T02:42:20;10.68;;;5.90;;
79204;SDS011;68632;47.512;19.104;2023-07-08T02:43:23;9.95;;;5.00;;
79204;SDS011;68632;47.512;19.104;2023-07-08T02:44:25;10.55;;;5.47;;
79204;SDS011;68632;47.512;19.104;2023-07-08T02:45:28;11.95;;;6.05;;
79204;SDS011;68632;47.512;19.104;2023-07-08T02:46:30;8.80;;;5.55;;
79204;SDS011;68632;47.512;19.104;2023-07-08T02:47:33;11.48;;;5.55;;
79204;SDS011;68632;47.512;19.104;2023-07-08T02:48:35;9.00;;;5.78;;
79204;SDS011;68632;47.512;19.104;2023-07-08T02:49:37;7.38;;;4.90;;
79204;SDS011;68632;47.512;19.104;2023-07-08T02:50:39;11.73;;;6.03;;
79204;SDS011;68632;47.512;19.104;2023-07-08T02:51:42;9.93;;;5.90;;
79204;SDS011;68632;47.512;19.104;2023-07-08T02:52:44;7.03;;;5.18;;
79204;SDS011;68632;47.512;19.104;2023-07-08T02:53:47;9.93;;;5.93;;
79204;SDS011;68632;47.512;19.104;2023-07-08T02:54:51;7.40;;;5.63;;
79204;SDS011;68632;47.512;19.104;2023-07-08T02:55:53;11.20;;;6.68;;
79204;SDS011;68632;47.512;19.104;2023-07-08T02:56:55;9.52;;;5.85;;
79204;SDS011;68632;47.512;19.104;2023-07-08T02:57:58;10.68;;;5.38;;
79204;SDS011;68632;47.512;19.104;2023-07-08T02:59:00;8.50;;;5.82;;
79204;SDS011;68632;47.512;19.104;2023-07-08T03:00:02;10.27;;;5.38;;
79204;SDS011;68632;47.512;19.104;2023-07-08T03:01:08;10.43;;;5.28;;
79204;SDS011;68632;47.512;19.104;2023-07-08T03:02:11;7.07;;;5.82;;
79204;SDS011;68632;47.512;19.104;2023-07-08T03:03:13;12.88;;;5.65;;
79204;SDS011;68632;47.512;19.104;2023-07-08T03:04:18;8.82;;;5.90;;
79204;SDS011;68632;47.512;19.104;2023-07-08T03:05:23;7.65;;;5.40;;
79204;SDS011;68632;47.512;19.104;2023-07-08T03:06:25;7.30;;;5.10;;
79204;SDS011;68632;47.512;19.104;2023-07-08T03:07:28;8.95;;;5.70;;
79204;SDS011;68632;47.512;19.104;2023-07-08T03:08:30;9.40;;;5.03;;
79204;SDS011;68632;47.512;19.104;2023-07-08T03:09:32;10.95;;;5.82;;
79204;SDS011;68632;47.512;19.104;2023-07-08T03:10:34;11.95;;;5.93;;
79204;SDS011;68632;47.512;19.104;2023-07-08T03:11:37;12.10;;;5.97;;
79204;SDS011;68632;47.512;19.104;2023-07-08T03:12:39;8.60;;;5.20;;
79204;SDS011;68632;47.512;19.104;2023-07-08T03:13:42;7.15;;;5.15;;
79204;SDS011;68632;47.512;19.104;2023-07-08T03:14:44;7.55;;;5.13;;
79204;SDS011;68632;47.512;19.104;2023-07-08T03:15:46;7.65;;;5.43;;
79204;SDS011;68632;47.512;19.104;2023-07-08T03:16:49;9.40;;;5.28;;
79204;SDS011;68632;47.512;19.104;2023-07-08T03:17:51;8.55;;;5.47;;
79204;SDS011;68632;47.512;19.104;2023-07-08T03:18:59;10.07;;;4.97;;
79204;SDS011;68632;47.512;19.104;2023-07-08T03:20:02;9.32;;;5.88;;
79204;SDS011;68632;47.512;19.104;2023-07-08T03:21:08;7.70;;;5.70;;
79204;SDS011;68632;47.512;19.104;2023-07-08T03:22:10;11.68;;;5.75;;
79204;SDS011;68632;47.512;19.104;2023-07-08T03:23:12;8.90;;;5.03;;
79204;SDS011;68632;47.512;19.104;2023-07-08T03:24:14;8.32;;;5.65;;
79204;SDS011;68632;47.512;19.104;2023-07-08T03:25:19;7.75;;;5.40;;
79204;SDS011;68632;47.512;19.104;2023-07-08T03:26:22;9.30;;;5.55;;
79204;SDS011;68632;47.512;19.104;2023-07-08T03:27:26;11.68;;;6.07;;
79204;SDS011;68632;47.512;19.104;2023-07-08T03:28:28;8.40;;;5.32;;
79204;SDS011;68632;47.512;19.104;2023-07-08T03:29:30;10.10;;;5.70;;
79204;SDS011;68632;47.512;19.104;2023-07-08T03:30:33;9.35;;;5.07;;
79204;SDS011;68632;47.512;19.104;2023-07-08T03:31:35;8.32;;;5.60;;
79204;SDS011;68632;47.512;19.104;2023-07-08T03:32:38;11.13;;;5.53;;
79204;SDS011;68632;47.512;19.104;2023-07-08T03:33:40;9.32;;;5.72;;
79204;SDS011;68632;47.512;19.104;2023-07-08T03:34:42;8.82;;;5.68;;
79204;SDS011;68632;47.512;19.104;2023-07-08T03:35:44;9.27;;;5.43;;
79204;SDS011;68632;47.512;19.104;2023-07-08T03:36:48;6.43;;;5.20;;
79204;SDS011;68632;47.512;19.104;2023-07-08T03:37:52;11.00;;;5.80;;
79204;SDS011;68632;47.512;19.104;2023-07-08T03:38:55;8.38;;;5.57;;
79204;SDS011;68632;47.512;19.104;2023-07-08T03:39:58;10.18;;;5.45;;
79204;SDS011;68632;47.512;19.104;2023-07-08T03:41:00;6.50;;;5.32;;
79204;SDS011;68632;47.512;19.104;2023-07-08T03:42:03;10.20;;;5.75;;
79204;SDS011;68632;47.512;19.104;2023-07-08T03:43:05;10.80;;;5.43;;
79204;SDS011;68632;47.512;19.104;2023-07-08T03:44:08;9.32;;;5.40;;
79204;SDS011;68632;47.512;19.104;2023-07-08T03:45:10;9.88;;;6.07;;
79204;SDS011;68632;47.512;19.104;2023-07-08T03:46:12;7.40;;;5.65;;
79204;SDS011;68632;47.512;19.104;2023-07-08T03:47:18;7.68;;;5.22;;
79204;SDS011;68632;47.512;19.104;2023-07-08T03:48:20;10.18;;;5.05;;
79204;SDS011;68632;47.512;19.104;2023-07-08T03:49:22;8.70;;;5.38;;
79204;SDS011;68632;47.512;19.104;2023-07-08T03:50:26;8.13;;;5.80;;
79204;SDS011;68632;47.512;19.104;2023-07-08T03:51:30;11.80;;;5.72;;
79204;SDS011;68632;47.512;19.104;2023-07-08T03:52:34;9.98;;;4.95;;
79204;SDS011;68632;47.512;19.104;2023-07-08T03:53:36;8.68;;;6.18;;
79204;SDS011;68632;47.512;19.104;2023-07-08T03:54:38;9.68;;;5.55;;
79204;SDS011;68632;47.512;19.104;2023-07-08T03:55:41;10.93;;;5.38;;
79204;SDS011;68632;47.512;19.104;2023-07-08T03:56:43;10.23;;;5.82;;
79204;SDS011;68632;47.512;19.104;2023-07-08T03:57:45;11.10;;;5.60;;
79204;SDS011;68632;47.512;19.104;2023-07-08T03:58:47;8.10;;;5.18;;
79204;SDS011;68632;47.512;19.104;2023-07-08T03:59:49;8.70;;;5.57;;
79204;SDS011;68632;47.512;19.104;2023-07-08T04:00:52;7.68;;;5.60;;
79204;SDS011;68632;47.512;19.104;2023-07-08T04:01:54;10.32;;;5.82;;
79204;SDS011;68632;47.512;19.104;2023-07-08T04:02:56;7.10;;;5.22;;
79204;SDS011;68632;47.512;19.104;2023-07-08T04:03:59;10.15;;;5.47;;
79204;SDS011;68632;47.512;19.104;2023-07-08T04:05:02;7.10;;;5.07;;
79204;SDS011;68632;47.512;19.104;2023-07-08T04:06:05;7.55;;;5.13;;
79204;SDS011;68632;47.512;19.104;2023-07-08T04:07:07;7.47;;;5.10;;
79204;SDS011;68632;47.512;19.104;2023-07-08T04:08:09;8.27;;;5.13;;
79204;SDS011;68632;47.512;19.104;2023-07-08T04:09:11;8.02;;;5.57;;
79204;SDS011;68632;47.512;19.104;2023-07-08T04:10:14;7.10;;;5.50;;
79204;SDS011;68632;47.512;19.104;2023-07-08T04:11:18;9.27;;;6.30;;
79204;SDS011;68632;47.512;19.104;2023-07-08T04:12:21;9.52;;;5.32;;
79204;SDS011;68632;47.512;19.104;2023-07-08T04:13:23;8.55;;;5.68;;
79204;SDS011;68632;47.512;19.104;2023-07-08T04:14:25;7.93;;;5.60;;
79204;SDS011;68632;47.512;19.104;2023-07-08T04:15:28;9.00;;;5.82;;
79204;SDS011;68632;47.512;19.104;2023-07-08T04:16:33;9.70;;;5.70;;
79204;SDS011;68632;47.512;19.104;2023-07-08T04:18:50;9.85;;;5.55;;
79204;SDS011;68632;47.512;19.104;2023-07-08T04:19:55;7.50;;;5.65;;
79204;SDS011;68632;47.512;19.104;2023-07-08T04:21:08;7.32;;;5.15;;
79204;SDS011;68632;47.512;19.104;2023-07-08T04:22:13;6.57;;;5.10;;
79204;SDS011;68632;47.512;19.104;2023-07-08T04:23:15;7.38;;;5.25;;
79204;SDS011;68632;47.512;19.104;2023-07-08T04:24:17;8.07;;;5.70;;
79204;SDS011;68632;47.512;19.104;2023-07-08T04:25:19;10.75;;;5.55;;
79204;SDS011;68632;47.512;19.104;2023-07-08T04:26:22;8.63;;;5.63;;
79204;SDS011;68632;47.512;19.104;2023-07-08T04:27:25;9.73;;;5.63;;
79204;SDS011;68632;47.512;19.104;2023-07-08T04:28:27;9.68;;;6.10;;
79204;SDS011;68632;47.512;19.104;2023-07-08T04:29:29;8.48;;;6.28;;
79204;SDS011;68632;47.512;19.104;2023-07-08T04:30:31;8.80;;;5.63;;
79204;SDS011;68632;47.512;19.104;2023-07-08T04:31:33;10.45;;;5.68;;
79204;SDS011;68632;47.512;19.104;2023-07-08T04:32:36;7.03;;;5.60;;
79204;SDS011;68632;47.512;19.104;2023-07-08T04:33:39;7.88;;;6.00;;
79204;SDS011;68632;47.512;19.104;2023-07-08T04:34:41;9.32;;;5.50;;
79204;SDS011;68632;47.512;19.104;2023-07-08T04:35:44;8.73;;;5.60;;
79204;SDS011;68632;47.512;19.104;2023-07-08T04:36:46;7.50;;;5.50;;
79204;SDS011;68632;47.512;19.104;2023-07-08T04:37:48;7.13;;;5.32;;
79204;SDS011;68632;47.512;19.104;2023-07-08T04:38:51;9.18;;;5.78;;
79204;SDS011;68632;47.512;19.104;2023-07-08T04:39:53;8.10;;;5.20;;
79204;SDS011;68632;47.512;19.104;2023-07-08T04:40:55;8.98;;;5.28;;
79204;SDS011;68632;47.512;19.104;2023-07-08T04:41:59;11.77;;;5.70;;
79204;SDS011;68632;47.512;19.104;2023-07-08T04:43:01;9.40;;;5.28;;
79204;SDS011;68632;47.512;19.104;2023-07-08T04:44:04;8.70;;;5.40;;
79204;SDS011;68632;47.512;19.104;2023-07-08T04:45:07;9.77;;;5.45;;
79204;SDS011;68632;47.512;19.104;2023-07-08T04:46:18;6.90;;;5.22;;
79204;SDS011;68632;47.512;19.104;2023-07-08T04:47:22;10.73;;;5.40;;
79204;SDS011;68632;47.512;19.104;2023-07-08T04:48:24;9.05;;;5.38;;
79204;SDS011;68632;47.512;19.104;2023-07-08T04:49:27;8.10;;;5.20;;
79204;SDS011;68632;47.512;19.104;2023-07-08T04:50:34;10.98;;;5.32;;
79204;SDS011;68632;47.512;19.104;2023-07-08T04:51:37;8.98;;;5.13;;
79204;SDS011;68632;47.512;19.104;2023-07-08T04:52:39;8.23;;;5.18;;
79204;SDS011;68632;47.512;19.104;2023-07-08T04:53:41;8.35;;;5.10;;
79204;SDS011;68632;47.512;19.104;2023-07-08T04:54:44;6.75;;;4.90;;
79204;SDS011;68632;47.512;19.104;2023-07-08T04:56:04;7.88;;;5.38;;
79204;SDS011;68632;47.512;19.104;2023-07-08T04:57:07;9.25;;;5.25;;
79204;SDS011;68632;47.512;19.104;2023-07-08T04:58:09;6.85;;;5.18;;
79204;SDS011;68632;47.512;19.104;2023-07-08T04:59:12;7.18;;;5.05;;
79204;SDS011;68632;47.512;19.104;2023-07-08T05:00:19;9.05;;;5.10;;
79204;SDS011;68632;47.512;19.104;2023-07-08T05:01:21;7.00;;;4.72;;
79204;SDS011;68632;47.512;19.104;2023-07-08T05:02:24;9.77;;;5.13;;
79204;SDS011;68632;47.512;19.104;2023-07-08T05:03:26;7.35;;;4.80;;
79204;SDS011;68632;47.512;19.104;2023-07-08T05:04:28;8.05;;;5.00;;
79204;SDS011;68632;47.512;19.104;2023-07-08T05:05:30;8.07;;;6.45;;
79204;SDS011;68632;47.512;19.104;2023-07-08T05:06:33;11.13;;;7.43;;
79204;SDS011;68632;47.512;19.104;2023-07-08T05:07:36;7.90;;;5.40;;
79204;SDS011;68632;47.512;19.104;2023-07-08T05:08:38;8.30;;;5.20;;
79204;SDS011;68632;47.512;19.104;2023-07-08T05:09:41;7.03;;;5.10;;
79204;SDS011;68632;47.512;19.104;2023-07-08T05:10:43;8.93;;;4.80;;
79204;SDS011;68632;47.512;19.104;2023-07-08T05:11:46;6.95;;;5.30;;
79204;SDS011;68632;47.512;19.104;2023-07-08T05:12:48;9.80;;;4.93;;
79204;SDS011;68632;47.512;19.104;2023-07-08T05:13:50;7.32;;;4.95;;
79204;SDS011;68632;47.512;19.104;2023-07-08T05:14:53;10.40;;;5.35;;
79204;SDS011;68632;47.512;19.104;2023-07-08T05:15:55;8.57;;;5.07;;
79204;SDS011;68632;47.512;19.104;2023-07-08T05:16:57;6.22;;;4.63;;
79204;SDS011;68632;47.512;19.104;2023-07-08T05:17:59;10.35;;;4.65;;
79204;SDS011;68632;47.512;19.104;2023-07-08T05:19:02;7.43;;;5.00;;
79204;SDS011;68632;47.512;19.104;2023-07-08T05:20:07;7.05;;;4.55;;
79204;SDS011;68632;47.512;19.104;2023-07-08T05:21:11;8.15;;;5.25;;
79204;SDS011;68632;47.512;19.104;2023-07-08T05:22:14;9.25;;;5.32;;
79204;SDS011;68632;47.512;19.104;2023-07-08T05:23:16;8.88;;;4.93;;
79204;SDS011;68632;47.512;19.104;2023-07-08T05:24:19;7.95;;;4.32;;
79204;SDS011;68632;47.512;19.104;2023-07-08T05:25:22;5.90;;;4.65;;
79204;SDS011;68632;47.512;19.104;2023-07-08T05:26:24;14.45;;;4.82;;
79204;SDS011;68632;47.512;19.104;2023-07-08T05:27:26;6.38;;;4.82;;
79204;SDS011;68632;47.512;19.104;2023-07-08T05:28:28;6.47;;;4.35;;
79204;SDS011;68632;47.512;19.104;2023-07-08T05:29:31;9.98;;;4.53;;
79204;SDS011;68632;47.512;19.104;2023-07-08T05:30:33;8.88;;;4.95;;
79204;SDS011;68632;47.512;19.104;2023-07-08T05:31:35;9.82;;;5.20;;
79204;SDS011;68632;47.512;19.104;2023-07-08T05:32:40;10.57;;;4.82;;
79204;SDS011;68632;47.512;19.104;2023-07-08T05:33:42;12.48;;;5.00;;
79204;SDS011;68632;47.512;19.104;2023-07-08T05:34:45;9.98;;;5.13;;
79204;SDS011;68632;47.512;19.104;2023-07-08T05:35:47;10.35;;;4.75;;
79204;SDS011;68632;47.512;19.104;2023-07-08T05:36:50;7.35;;;4.57;;
79204;SDS011;68632;47.512;19.104;2023-07-08T05:37:52;7.18;;;4.45;;
79204;SDS011;68632;47.512;19.104;2023-07-08T05:38:54;7.25;;;4.88;;
79204;SDS011;68632;47.512;19.104;2023-07-08T05:39:56;8.73;;;4.35;;
79204;SDS011;68632;47.512;19.104;2023-07-08T05:41:01;6.50;;;4.30;;
79204;SDS011;68632;47.512;19.104;2023-07-08T05:42:04;8.73;;;4.75;;
79204;SDS011;68632;47.512;19.104;2023-07-08T05:43:07;6.65;;;4.30;;
79204;SDS011;68632;47.512;19.104;2023-07-08T05:44:09;11.15;;;4.78;;
79204;SDS011;68632;47.512;19.104;2023-07-08T05:45:11;5.63;;;4.00;;
79204;SDS011;68632;47.512;19.104;2023-07-08T05:46:13;6.65;;;4.18;;
79204;SDS011;68632;47.512;19.104;2023-07-08T05:47:15;5.95;;;4.30;;
79204;SDS011;68632;47.512;19.104;2023-07-08T05:48:18;6.85;;;4.63;;
79204;SDS011;68632;47.512;19.104;2023-07-08T05:49:20;8.57;;;4.70;;
79204;SDS011;68632;47.512;19.104;2023-07-08T05:50:22;7.50;;;4.00;;
79204;SDS011;68632;47.512;19.104;2023-07-08T05:51:24;10.23;;;4.53;;
79204;SDS011;68632;47.512;19.104;2023-07-08T05:52:26;8.43;;;4.93;;
79204;SDS011;68632;47.512;19.104;2023-07-08T05:53:28;12.00;;;4.50;;
79204;SDS011;68632;47.512;19.104;2023-07-08T05:54:31;8.10;;;4.20;;
79204;SDS011;68632;47.512;19.104;2023-07-08T05:55:33;9.60;;;4.53;;
79204;SDS011;68632;47.512;19.104;2023-07-08T05:56:35;6.28;;;4.45;;
79204;SDS011;68632;47.512;19.104;2023-07-08T05:57:38;6.20;;;4.30;;
79204;SDS011;68632;47.512;19.104;2023-07-08T05:58:40;9.75;;;4.70;;
79204;SDS011;68632;47.512;19.104;2023-07-08T05:59:42;7.88;;;4.43;;
79204;SDS011;68632;47.512;19.104;2023-07-08T06:00:45;7.05;;;3.92;;
79204;SDS011;68632;47.512;19.104;2023-07-08T06:01:47;6.55;;;4.00;;
79204;SDS011;68632;47.512;19.104;2023-07-08T06:02:49;6.07;;;4.28;;
79204;SDS011;68632;47.512;19.104;2023-07-08T06:03:51;6.72;;;3.97;;
79204;SDS011;68632;47.512;19.104;2023-07-08T06:04:54;8.57;;;4.15;;
79204;SDS011;68632;47.512;19.104;2023-07-08T06:05:56;7.53;;;4.55;;
79204;SDS011;68632;47.512;19.104;2023-07-08T06:06:58;7.18;;;4.90;;
79204;SDS011;68632;47.512;19.104;2023-07-08T06:08:00;6.15;;;4.40;;
79204;SDS011;68632;47.512;19.104;2023-07-08T06:09:03;6.18;;;3.72;;
79204;SDS011;68632;47.512;19.104;2023-07-08T06:10:05;9.55;;;4.50;;
79204;SDS011;68632;47.512;19.104;2023-07-08T06:11:08;6.00;;;4.20;;
79204;SDS011;68632;47.512;19.104;2023-07-08T06:12:11;8.48;;;4.55;;
79204;SDS011;68632;47.512;19.104;2023-07-08T06:13:13;5.78;;;4.15;;
79204;SDS011;68632;47.512;19.104;2023-07-08T06:14:15;6.57;;;4.03;;
79204;SDS011;68632;47.512;19.104;2023-07-08T06:15:18;5.82;;;4.03;;
79204;SDS011;68632;47.512;19.104;2023-07-08T06:16:20;7.32;;;4.03;;
79204;SDS011;68632;47.512;19.104;2023-07-08T06:17:40;6.88;;;4.50;;
79204;SDS011;68632;47.512;19.104;2023-07-08T06:18:42;7.20;;;3.92;;
79204;SDS011;68632;47.512;19.104;2023-07-08T06:19:45;6.47;;;4.45;;
79204;SDS011;68632;47.512;19.104;2023-07-08T06:20:50;6.88;;;4.00;;
79204;SDS011;68632;47.512;19.104;2023-07-08T06:21:54;7.40;;;4.05;;
79204;SDS011;68632;47.512;19.104;2023-07-08T06:23:14;10.27;;;5.20;;